createdAt,value
2023-05-10T00:01:36.426Z,96964.28
2023-05-10T00:04:23.513Z,96954.50
2023-05-10T00:07:11.302Z,96951.19
2023-05-10T00:09:58.148Z,96938.38
2023-05-10T00:12:45.078Z,96942.56
2023-05-10T00:15:31.931Z,96951.91
2023-05-10T00:18:18.874Z,96948.25
2023-05-10T00:21:06.092Z,96946.41
2023-05-10T00:23:52.951Z,96950.72
2023-05-10T00:26:39.797Z,96946.53
2023-05-10T00:29:26.829Z,96949.56
2023-05-10T00:32:14.950Z,96943.22
2023-05-10T00:35:01.974Z,96946.69
2023-05-10T00:37:49.073Z,96954.72
2023-05-10T00:40:37.213Z,96957.75
2023-05-10T00:43:24.071Z,96946.53
2023-05-10T00:46:11.989Z,96958.59
2023-05-10T00:48:59.156Z,96964.78
2023-05-10T00:51:46.139Z,96969.50
2023-05-10T00:54:33.278Z,96962.91
2023-05-10T00:57:20.533Z,96964.06
2023-05-10T01:00:08.812Z,96977.66
2023-05-10T01:02:55.941Z,96983.59
2023-05-10T01:05:42.844Z,96990.34
2023-05-10T01:08:29.963Z,96996.38
2023-05-10T01:11:16.881Z,96997.50
2023-05-10T01:14:04.549Z,97005.28
2023-05-10T01:16:51.661Z,97004.22
2023-05-10T01:19:39.113Z,97011.69
2023-05-10T01:23:06.365Z,97011.16
2023-05-10T01:26:15.875Z,97017.31
2023-05-10T01:29:11.623Z,97014.41
2023-05-10T01:32:21.263Z,97015.53
2023-05-10T01:35:17.374Z,97030.00
2023-05-10T01:38:30.619Z,97042.38
2023-05-10T01:41:49.644Z,97051.56
2023-05-10T01:44:59.426Z,97043.81
2023-05-10T01:47:54.275Z,97040.50
2023-05-10T01:50:44.638Z,97035.75
2023-05-10T01:53:35.158Z,97027.53
2023-05-10T01:56:26.767Z,97020.97
2023-05-10T01:59:17.987Z,97023.94
2023-05-10T02:02:06.574Z,97031.72
2023-05-10T02:04:56.324Z,97029.25
2023-05-10T02:07:44.346Z,97035.81
2023-05-10T02:10:32.240Z,97029.56
2023-05-10T02:13:19.978Z,97020.13
2023-05-10T02:16:08.315Z,97021.72
2023-05-10T02:18:58.158Z,97018.16
2023-05-10T02:21:46.470Z,97019.75
2023-05-10T02:24:35.829Z,97022.19
2023-05-10T02:27:24.986Z,97019.75
2023-05-10T02:30:13.288Z,97021.56
2023-05-10T02:33:00.986Z,97024.41
2023-05-10T02:35:48.696Z,97023.41
2023-05-10T02:38:37.020Z,97029.19
2023-05-10T02:41:25.290Z,97024.19
2023-05-10T02:44:15.354Z,97024.97
2023-05-10T02:47:02.448Z,97024.84
2023-05-10T02:49:49.503Z,97019.81
2023-05-10T02:52:49.127Z,97020.13
2023-05-10T02:55:41.494Z,97019.88
2023-05-10T02:58:28.547Z,97019.88
2023-05-10T03:01:15.639Z,97020.84
2023-05-10T03:04:02.584Z,97018.72
2023-05-10T03:06:49.517Z,97026.06
2023-05-10T03:09:36.734Z,97021.91
2023-05-10T03:14:31.477Z,97027.09
2023-05-10T03:17:37.496Z,97025.22
2023-05-10T03:20:36.320Z,97023.41
2023-05-10T03:23:35.222Z,97028.16
2023-05-10T03:26:27.086Z,97028.53
2023-05-10T03:29:15.932Z,97025.56
2023-05-10T03:32:02.936Z,97022.28
2023-05-10T03:34:49.840Z,97027.34
2023-05-10T03:37:42.416Z,97036.69
2023-05-10T03:40:33.175Z,97035.09
2023-05-10T03:43:20.021Z,97038.97
2023-05-10T03:46:06.900Z,97037.84
2023-05-10T03:48:53.773Z,97030.50
2023-05-10T03:51:40.870Z,97046.88
2023-05-10T03:54:27.882Z,97035.81
2023-05-10T03:57:14.787Z,97039.81
2023-05-10T04:00:01.825Z,97051.75
2023-05-10T04:02:48.767Z,97051.59
2023-05-10T04:05:35.653Z,97054.94
2023-05-10T04:08:22.582Z,97054.94
2023-05-10T04:11:11.203Z,97050.75
2023-05-10T04:13:58.166Z,97051.78
2023-05-10T04:16:45.047Z,97043.19
2023-05-10T04:19:32.449Z,97055.16
2023-05-10T04:22:19.328Z,97047.88
2023-05-10T04:25:07.126Z,97052.91
2023-05-10T04:27:53.949Z,97051.19
2023-05-10T04:30:41.579Z,97051.91
2023-05-10T04:33:28.475Z,97055.94
2023-05-10T04:36:15.359Z,97053.78
2023-05-10T04:39:03.914Z,97064.56
2023-05-10T04:41:50.824Z,97066.44
2023-05-10T04:44:37.741Z,97059.38
2023-05-10T04:47:24.666Z,97062.69
2023-05-10T04:50:11.756Z,97063.56
2023-05-10T04:52:58.699Z,97070.19
2023-05-10T04:55:45.577Z,97063.00
2023-05-10T04:58:32.495Z,97069.63
2023-05-10T05:01:19.407Z,97072.94
2023-05-10T05:04:06.467Z,97073.34
2023-05-10T05:06:54.004Z,97074.97
2023-05-10T05:09:41.042Z,97071.66
2023-05-10T05:12:27.947Z,97069.31
2023-05-10T05:15:16.292Z,97076.69
2023-05-10T05:18:03.477Z,97078.09
2023-05-10T05:20:50.452Z,97082.88
2023-05-10T05:23:37.297Z,97083.16
2023-05-10T05:26:24.230Z,97094.66
2023-05-10T05:29:11.080Z,97106.22
2023-05-10T05:31:58.004Z,97104.03
2023-05-10T05:34:48.050Z,97105.31
2023-05-10T05:37:34.977Z,97111.53
2023-05-10T05:40:21.796Z,97116.84
2023-05-10T05:43:08.698Z,97117.13
2023-05-10T05:45:57.009Z,97111.97
2023-05-10T05:48:43.902Z,97118.00
2023-05-10T05:51:30.756Z,97127.94
2023-05-10T05:54:17.623Z,97123.47
2023-05-10T05:57:04.450Z,97117.56
2023-05-10T05:59:51.375Z,97121.16
2023-05-10T06:02:38.379Z,97128.38
2023-05-10T06:05:25.366Z,97124.47
2023-05-10T06:08:12.250Z,97127.06
2023-05-10T06:10:59.093Z,97132.50
2023-05-10T06:13:46.548Z,97125.16
2023-05-10T06:16:34.246Z,97132.50
2023-05-10T06:19:21.110Z,97137.53
2023-05-10T06:22:07.962Z,97127.75
2023-05-10T06:24:54.780Z,97133.81
2023-05-10T06:27:41.627Z,97129.03
2023-05-10T06:30:29.815Z,97127.16
2023-05-10T06:33:17.291Z,97132.06
2023-05-10T06:36:04.397Z,97136.22
2023-05-10T06:38:52.275Z,97141.59
2023-05-10T06:41:39.155Z,97133.50
2023-05-10T06:44:26.179Z,97136.81
2023-05-10T06:47:13.411Z,97141.72
2023-05-10T06:50:00.474Z,97140.41
2023-05-10T06:52:47.305Z,97140.50
2023-05-10T06:55:34.219Z,97139.72
2023-05-10T06:58:21.056Z,97141.41
2023-05-10T07:01:08.082Z,97139.56
2023-05-10T07:03:54.976Z,97143.22
2023-05-10T07:06:41.904Z,97152.28
2023-05-10T07:09:29.134Z,97148.09
2023-05-10T07:12:16.318Z,97157.19
2023-05-10T07:15:04.053Z,97154.44
2023-05-10T07:17:51.289Z,97155.78
2023-05-10T07:20:38.147Z,97156.34
2023-05-10T07:23:25.072Z,97160.97
2023-05-10T07:26:12.619Z,97159.25
2023-05-10T07:28:59.490Z,97162.66
2023-05-10T07:31:46.381Z,97154.81
2023-05-10T07:34:33.311Z,97159.06
2023-05-10T07:37:20.187Z,97158.44
2023-05-10T07:40:07.865Z,97163.44
2023-05-10T07:42:54.849Z,97167.06
2023-05-10T07:45:41.785Z,97159.91
2023-05-10T07:48:28.640Z,97164.16
2023-05-10T07:51:15.524Z,97167.81
2023-05-10T07:54:03.502Z,97168.72
2023-05-10T07:56:50.391Z,97169.84
2023-05-10T07:59:37.508Z,97170.50
2023-05-10T08:02:24.546Z,97169.09
2023-05-10T08:05:11.663Z,97162.44
2023-05-10T08:07:58.582Z,97160.56
2023-05-10T08:10:45.429Z,97175.72
2023-05-10T08:13:32.465Z,97167.56
2023-05-10T08:16:19.861Z,97174.81
2023-05-10T08:19:06.962Z,97174.44
2023-05-10T08:21:54.389Z,97182.63
2023-05-10T08:24:42.960Z,97180.19
2023-05-10T08:27:29.814Z,97177.63
2023-05-10T08:30:16.702Z,97181.00
2023-05-10T08:33:03.663Z,97184.38
2023-05-10T08:35:50.611Z,97189.31
2023-05-10T08:38:38.927Z,97183.44
2023-05-10T08:41:26.909Z,97180.69
2023-05-10T08:44:13.924Z,97184.88
2023-05-10T08:47:05.227Z,97189.03
2023-05-10T08:49:53.553Z,97196.22
2023-05-10T08:52:41.629Z,97200.84
2023-05-10T08:55:28.966Z,97200.72
2023-05-10T08:58:16.004Z,97213.19
2023-05-10T09:01:03.541Z,97209.00
2023-05-10T09:03:51.611Z,97205.06
2023-05-10T09:06:38.861Z,97207.81
2023-05-10T09:09:26.800Z,97210.25
2023-05-10T09:12:16.572Z,97217.28
2023-05-10T09:15:06.695Z,97217.75
2023-05-10T09:17:53.885Z,97214.13
2023-05-10T09:20:41.583Z,97227.19
2023-05-10T09:23:33.213Z,97221.38
2023-05-10T09:26:24.416Z,97220.47
2023-05-10T09:29:11.474Z,97217.34
2023-05-10T09:31:58.408Z,97219.91
2023-05-10T09:34:45.951Z,97211.06
2023-05-10T09:37:32.922Z,97211.00
2023-05-10T09:40:21.598Z,97205.94
2023-05-10T09:43:08.672Z,97206.47
2023-05-10T09:45:55.876Z,97203.50
2023-05-10T09:48:45.058Z,97199.59
2023-05-10T09:51:35.005Z,97197.59
2023-05-10T09:54:24.787Z,97199.13
2023-05-10T09:57:21.290Z,97194.69
2023-05-10T10:00:11.098Z,97195.63
2023-05-10T10:02:59.977Z,97194.78
2023-05-10T10:05:48.497Z,97199.94
2023-05-10T10:08:35.650Z,97195.53
2023-05-10T10:11:24.602Z,97194.75
2023-05-10T10:14:13.504Z,97195.38
2023-05-10T10:19:52.112Z,97194.44
2023-05-10T10:22:39.001Z,97192.72
2023-05-10T10:25:26.459Z,97196.91
2023-05-10T10:28:32.279Z,97195.13
2023-05-10T10:31:28.901Z,97199.78
2023-05-10T10:34:33.995Z,97190.78
2023-05-10T10:37:21.340Z,97194.28
2023-05-10T10:40:24.505Z,97200.38
2023-05-10T10:43:25.195Z,97193.56
2023-05-10T10:46:13.540Z,97188.03
2023-05-10T10:49:11.016Z,97191.63
2023-05-10T10:52:22.057Z,97196.28
2023-05-10T10:55:14.799Z,97195.22
2023-05-10T10:58:02.063Z,97194.63
2023-05-10T11:00:49.000Z,97198.47
2023-05-10T11:03:35.996Z,97194.84
2023-05-10T11:06:36.940Z,97189.59
2023-05-10T11:09:25.879Z,97186.66
2023-05-10T11:12:12.900Z,97194.00
2023-05-10T11:15:00.029Z,97201.91
2023-05-10T11:17:52.871Z,97204.06
2023-05-10T11:20:40.918Z,97192.34
2023-05-10T11:23:40.924Z,97192.56
2023-05-10T11:26:36.838Z,97199.59
2023-05-10T11:29:23.876Z,97196.84
2023-05-10T11:32:10.939Z,97198.25
2023-05-10T11:34:57.765Z,97208.22
2023-05-10T11:37:49.212Z,97213.88
2023-05-10T11:40:37.098Z,97214.09
2023-05-10T11:43:29.144Z,97218.19
2023-05-10T11:46:17.258Z,97222.16
2023-05-10T11:49:07.935Z,97219.88
2023-05-10T11:52:05.069Z,97219.63
2023-05-10T11:54:53.323Z,97220.00
2023-05-10T11:57:42.224Z,97222.13
2023-05-10T12:00:29.765Z,97214.19
2023-05-10T12:03:17.189Z,97215.09
2023-05-10T12:06:04.747Z,97213.31
2023-05-10T12:08:54.515Z,97217.22
2023-05-10T12:11:44.255Z,97217.44
2023-05-10T12:14:36.119Z,97223.22
2023-05-10T12:17:23.123Z,97217.00
2023-05-10T12:20:17.042Z,97221.97
2023-05-10T12:23:04.848Z,97222.94
2023-05-10T12:25:54.927Z,97227.47
2023-05-10T12:28:41.865Z,97225.09
2023-05-10T12:31:28.729Z,97215.63
2023-05-10T12:34:32.608Z,97222.69
2023-05-10T12:37:25.363Z,97222.94
2023-05-10T12:40:12.403Z,97224.75
2023-05-10T12:42:59.350Z,97224.50
2023-05-10T12:45:49.181Z,97229.19
2023-05-10T12:48:37.787Z,97229.31
2023-05-10T12:51:24.689Z,97235.31
2023-05-10T12:54:11.545Z,97236.28
2023-05-10T12:56:58.423Z,97228.47
2023-05-10T12:59:45.384Z,97228.38
2023-05-10T13:02:32.314Z,97229.09
2023-05-10T13:05:19.198Z,97229.34
2023-05-10T13:08:06.221Z,97238.25
2023-05-10T13:10:53.329Z,97227.44
2023-05-10T13:13:40.396Z,97230.44
2023-05-10T13:16:27.846Z,97232.44
2023-05-10T13:19:15.252Z,97226.91
2023-05-10T13:22:02.303Z,97231.94
2023-05-10T13:24:49.217Z,97235.28
2023-05-10T13:27:36.249Z,97240.91
2023-05-10T13:30:24.785Z,97230.50
2023-05-10T13:33:11.677Z,97224.03
2023-05-10T13:35:58.561Z,97223.59
2023-05-10T13:38:45.386Z,97222.88
2023-05-10T13:41:32.268Z,97219.91
2023-05-10T13:44:19.161Z,97221.53
2023-05-10T13:47:06.497Z,97205.38
2023-05-10T13:49:53.391Z,97216.47
2023-05-10T13:52:40.478Z,97203.94
2023-05-10T13:55:27.434Z,97211.84
2023-05-10T13:58:14.386Z,97215.94
2023-05-10T14:01:01.208Z,97212.13
2023-05-10T14:03:48.179Z,97209.94
2023-05-10T14:06:35.129Z,97204.72
2023-05-10T14:09:21.970Z,97212.47
2023-05-10T14:12:09.108Z,97205.81
2023-05-10T14:14:56.006Z,97207.09
2023-05-10T14:17:42.939Z,97205.91
2023-05-10T14:20:30.031Z,97203.91
2023-05-10T14:23:16.940Z,97201.25
2023-05-10T14:26:04.052Z,97199.69
2023-05-10T14:28:50.980Z,97194.66
2023-05-10T14:31:37.972Z,97198.13
2023-05-10T14:34:24.852Z,97197.53
2023-05-10T14:37:12.793Z,97194.53
2023-05-10T14:39:59.761Z,97203.25
2023-05-10T14:42:46.666Z,97191.91
2023-05-10T14:45:33.803Z,97193.47
2023-05-10T14:48:22.265Z,97197.69
2023-05-10T14:51:09.112Z,97198.31
2023-05-10T14:53:56.054Z,97196.13
2023-05-10T14:56:42.941Z,97203.09
2023-05-10T14:59:29.877Z,97188.75
2023-05-10T15:02:17.288Z,97196.53
2023-05-10T15:05:04.980Z,97199.88
2023-05-10T15:07:52.431Z,97198.06
2023-05-10T15:10:39.988Z,97202.16
2023-05-10T15:13:27.192Z,97202.28
2023-05-10T15:16:14.082Z,97202.16
2023-05-10T15:19:01.109Z,97206.09
2023-05-10T15:21:48.363Z,97205.28
2023-05-10T15:24:35.267Z,97203.25
2023-05-10T15:27:22.192Z,97207.66
2023-05-10T15:30:09.577Z,97200.00
2023-05-10T15:32:56.879Z,97208.16
2023-05-10T15:35:43.792Z,97199.06
2023-05-10T15:38:30.657Z,97211.25
2023-05-10T15:41:18.012Z,97206.59
2023-05-10T15:44:04.982Z,97207.44
2023-05-10T15:46:52.016Z,97208.25
2023-05-10T15:49:38.909Z,97206.97
2023-05-10T15:52:25.866Z,97201.81
2023-05-10T15:55:13.436Z,97203.00
2023-05-10T15:58:00.267Z,97210.69
2023-05-10T16:00:47.194Z,97212.94
2023-05-10T16:03:37.291Z,97206.94
2023-05-10T16:06:24.468Z,97211.03
2023-05-10T16:09:11.287Z,97208.13
2023-05-10T16:11:58.244Z,97201.22
2023-05-10T16:14:45.200Z,97208.97
2023-05-10T16:17:32.363Z,97209.94
2023-05-10T16:20:19.329Z,97201.94
2023-05-10T16:23:07.451Z,97209.13
2023-05-10T16:25:54.772Z,97203.97
2023-05-10T16:28:41.642Z,97204.41
2023-05-10T16:31:28.580Z,97210.03
2023-05-10T16:34:16.409Z,97204.16
2023-05-10T16:37:03.331Z,97211.56
2023-05-10T16:39:50.356Z,97208.25
2023-05-10T16:42:37.257Z,97207.03
2023-05-10T16:45:27.391Z,97214.31
2023-05-10T16:48:14.297Z,97209.28
2023-05-10T16:51:02.798Z,97212.19
2023-05-10T16:53:49.800Z,97217.53
2023-05-10T16:56:36.791Z,97218.97
2023-05-10T16:59:32.660Z,97225.47
2023-05-10T17:02:20.989Z,97224.59
2023-05-10T17:05:08.650Z,97225.22
2023-05-10T17:07:56.081Z,97234.88
2023-05-10T17:10:42.918Z,97237.81
2023-05-10T17:13:30.443Z,97227.44
2023-05-10T17:16:17.605Z,97244.88
2023-05-10T17:19:04.717Z,97244.41
2023-05-10T17:21:51.840Z,97246.94
2023-05-10T17:24:38.722Z,97251.72
2023-05-10T17:27:25.608Z,97250.75
2023-05-10T17:30:13.710Z,97251.19
2023-05-10T17:33:00.953Z,97265.84
2023-05-10T17:35:48.086Z,97264.28
2023-05-10T17:38:36.508Z,97265.84
2023-05-10T17:41:23.391Z,97260.59
2023-05-10T17:44:10.251Z,97260.72
2023-05-10T17:46:57.112Z,97267.22
2023-05-10T17:49:43.963Z,97269.56
2023-05-10T17:52:33.372Z,97275.78
2023-05-10T17:55:20.558Z,97269.09
2023-05-10T17:58:07.638Z,97269.22
2023-05-10T18:00:54.976Z,97280.94
2023-05-10T18:03:41.930Z,97274.34
2023-05-10T18:06:28.900Z,97275.31
2023-05-10T18:09:16.217Z,97284.75
2023-05-10T18:12:03.688Z,97279.00
2023-05-10T18:14:50.864Z,97289.97
2023-05-10T18:17:37.871Z,97284.94
2023-05-10T18:20:24.769Z,97292.59
2023-05-10T18:23:12.167Z,97297.25
2023-05-10T18:25:59.160Z,97291.38
2023-05-10T18:28:46.004Z,97298.19
2023-05-10T18:31:32.906Z,97299.50
2023-05-10T18:34:20.034Z,97298.75
2023-05-10T18:37:08.188Z,97305.56
2023-05-10T18:39:55.163Z,97311.78
2023-05-10T18:42:42.200Z,97310.94
2023-05-10T18:45:29.581Z,97317.72
2023-05-10T18:48:16.968Z,97314.16
2023-05-10T18:51:04.265Z,97319.50
2023-05-10T18:53:51.147Z,97318.91
2023-05-10T18:56:43.727Z,97323.31
2023-05-10T18:59:30.726Z,97326.19
2023-05-10T19:02:17.711Z,97334.09
2023-05-10T19:05:05.237Z,97342.91
2023-05-10T19:07:52.112Z,97344.28
2023-05-10T19:10:39.200Z,97347.75
2023-05-10T19:13:28.344Z,97350.78
2023-05-10T19:16:17.082Z,97352.97
2023-05-10T19:19:06.475Z,97342.53
2023-05-10T19:21:55.848Z,97351.50
2023-05-10T19:24:42.927Z,97356.56
2023-05-10T19:27:31.783Z,97352.94
2023-05-10T19:30:18.639Z,97358.75
2023-05-10T19:33:06.069Z,97360.34
2023-05-10T19:35:53.452Z,97361.78
2023-05-10T19:38:40.418Z,97361.34
2023-05-10T19:41:27.291Z,97361.94
2023-05-10T19:44:14.449Z,97367.72
2023-05-10T19:47:01.589Z,97366.72
2023-05-10T19:49:48.592Z,97365.13
2023-05-10T19:52:35.484Z,97356.28
2023-05-10T19:55:27.910Z,97365.53
2023-05-10T19:58:15.042Z,97367.59
2023-05-10T20:01:02.597Z,97358.50
2023-05-10T20:03:49.598Z,97361.69
2023-05-10T20:06:36.647Z,97366.47
2023-05-10T20:09:23.475Z,97364.31
2023-05-10T20:12:10.492Z,97366.19
2023-05-10T20:14:57.516Z,97361.72
2023-05-10T20:17:44.857Z,97369.97
2023-05-10T20:20:31.809Z,97372.59
2023-05-10T20:23:18.675Z,97378.19
2023-05-10T20:26:05.756Z,97374.88
2023-05-10T20:28:52.629Z,97373.44
2023-05-10T20:31:39.500Z,97376.75
2023-05-10T20:34:26.527Z,97376.34
2023-05-10T20:37:13.440Z,97380.13
2023-05-10T20:40:00.352Z,97380.13
2023-05-10T20:42:47.694Z,97375.94
2023-05-10T20:45:37.556Z,97374.47
2023-05-10T20:48:24.712Z,97375.78
2023-05-10T20:51:11.588Z,97377.66
2023-05-10T20:53:58.435Z,97375.97
2023-05-10T20:56:45.352Z,97376.81
2023-05-10T20:59:32.219Z,97368.44
2023-05-10T21:02:19.158Z,97372.94
2023-05-10T21:05:06.628Z,97371.34
2023-05-10T21:07:54.294Z,97374.09
2023-05-10T21:10:41.224Z,97372.66
2023-05-10T21:13:28.332Z,97363.13
2023-05-10T21:16:15.277Z,97372.06
2023-05-10T21:19:02.415Z,97368.59
2023-05-10T21:21:49.403Z,97369.31
2023-05-10T21:24:36.762Z,97375.97
2023-05-10T21:27:23.619Z,97380.88
2023-05-10T21:30:10.794Z,97378.59
2023-05-10T21:32:59.991Z,97383.03
2023-05-10T21:35:47.060Z,97387.69
2023-05-10T21:38:34.189Z,97385.38
2023-05-10T21:41:21.847Z,97387.53
2023-05-10T21:44:08.720Z,97384.78
2023-05-10T21:46:56.028Z,97378.59
2023-05-10T21:49:42.923Z,97388.13
2023-05-10T21:52:29.787Z,97382.78
2023-05-10T21:55:16.897Z,97385.66
2023-05-10T21:58:03.771Z,97382.34
2023-05-10T22:00:50.670Z,97385.94
2023-05-10T22:03:37.812Z,97380.63
2023-05-10T22:06:24.701Z,97382.06
2023-05-10T22:09:11.678Z,97383.94
2023-05-10T22:11:58.887Z,97392.03
2023-05-10T22:14:45.998Z,97376.16
2023-05-10T22:17:33.438Z,97383.22
2023-05-10T22:20:21.570Z,97384.22
2023-05-10T22:23:08.406Z,97381.22
2023-05-10T22:26:00.054Z,97389.72
2023-05-10T22:28:46.992Z,97383.09
2023-05-10T22:31:34.004Z,97382.09
2023-05-10T22:34:21.032Z,97378.31
2023-05-10T22:37:07.959Z,97379.19
2023-05-10T22:39:54.805Z,97376.88
2023-05-10T22:42:41.763Z,97380.50
2023-05-10T22:45:28.620Z,97383.53
2023-05-10T22:48:15.930Z,97380.06
2023-05-10T22:51:02.820Z,97385.41
2023-05-10T22:53:49.718Z,97380.91
2023-05-10T22:56:36.640Z,97379.66
2023-05-10T22:59:23.748Z,97388.28
2023-05-10T23:02:11.206Z,97385.69
2023-05-10T23:04:58.259Z,97386.13
2023-05-10T23:07:45.256Z,97385.41
2023-05-10T23:10:32.368Z,97392.03
2023-05-10T23:13:21.018Z,97383.38
2023-05-10T23:16:08.199Z,97395.06
2023-05-10T23:18:55.558Z,97387.44
2023-05-10T23:21:42.544Z,97393.63
2023-05-10T23:24:29.452Z,97388.88
2023-05-10T23:27:16.309Z,97387.84
2023-05-10T23:30:03.346Z,97393.22
2023-05-10T23:32:50.299Z,97384.97
2023-05-10T23:35:37.152Z,97389.88
2023-05-10T23:38:24.673Z,97387.41
2023-05-10T23:41:11.490Z,97388.44
2023-05-10T23:43:58.364Z,97392.19
2023-05-10T23:46:45.215Z,97398.38
2023-05-10T23:49:32.113Z,97386.38
2023-05-10T23:55:54.414Z,97385.03
2023-05-10T23:58:41.277Z,97379.25
